KIPL/IPL METAR and TAF weather

Enter ICAO airport designator
Station Type Date Time Source
KIPL METAR 2021/05/15 00:53 UTC NOAA

KIPL 150053Z AUTO 27009KT 10SM CLR 36/04 A2967 RMK AO2 SLP047 T03610039


Station Type Date Time Source
KIPL Decoded METAR 2021/05/15 00:53 UTC NOAA

Imperial, Imperial County Airport, CA, United States (KIPL) 32-50-03N 115-34-43W -15M
May 14, 2021 - 08:53 PM EDT / 2021.05.15 0053 UTC
Wind: from the W (270 degrees) at 10 MPH (9 KT):0
Visibility: 10 mile(s):0
Sky conditions: clear
Temperature: 97.0 F (36.1 C)
Dew Point: 39.0 F (3.9 C)
Relative Humidity: 13%
Pressure (altimeter): 29.67 in. Hg (1004 hPa)
ob: KIPL 150053Z AUTO 27009KT 10SM CLR 36/04 A2967 RMK AO2 SLP047 T03610039
cycle: 1

Station Type Date Time Source
KIPL TAF 2021/05/14 18:21 UTC NOAA

TAF KIPL 141720Z 1418/1518 12006KT P6SM SKC
FM150100 26010KT P6SM SKC
FM151200 VRB04KT P6SM SKC
FM151600 13007KT P6SM FEW250

Example: see airport list